sensor_id;sensor_type;location;lat;lon;timestamp;P1;durP1;ratioP1;P2;durP2;ratioP2
57551;SDS011;43379;48.160;14.036;2023-05-02T00:00:24;10.50;;;9.70;;
57551;SDS011;43379;48.160;14.036;2023-05-02T00:02:50;12.40;;;11.40;;
57551;SDS011;43379;48.160;14.036;2023-05-02T00:05:16;11.63;;;10.50;;
57551;SDS011;43379;48.160;14.036;2023-05-02T00:07:41;11.23;;;10.33;;
57551;SDS011;43379;48.160;14.036;2023-05-02T00:10:07;11.50;;;10.67;;
57551;SDS011;43379;48.160;14.036;2023-05-02T00:12:33;11.50;;;10.50;;
57551;SDS011;43379;48.160;14.036;2023-05-02T00:14:59;11.60;;;10.70;;
57551;SDS011;43379;48.160;14.036;2023-05-02T00:17:25;11.73;;;10.83;;
57551;SDS011;43379;48.160;14.036;2023-05-02T00:19:51;11.03;;;10.23;;
57551;SDS011;43379;48.160;14.036;2023-05-02T00:22:16;11.10;;;10.07;;
57551;SDS011;43379;48.160;14.036;2023-05-02T00:24:42;11.40;;;10.60;;
57551;SDS011;43379;48.160;14.036;2023-05-02T00:27:07;11.53;;;10.63;;
57551;SDS011;43379;48.160;14.036;2023-05-02T00:29:33;12.00;;;11.10;;
57551;SDS011;43379;48.160;14.036;2023-05-02T00:31:59;10.57;;;9.77;;
57551;SDS011;43379;48.160;14.036;2023-05-02T00:34:28;11.50;;;10.60;;
57551;SDS011;43379;48.160;14.036;2023-05-02T00:36:55;11.53;;;10.53;;
57551;SDS011;43379;48.160;14.036;2023-05-02T00:39:20;11.40;;;10.50;;
57551;SDS011;43379;48.160;14.036;2023-05-02T00:41:46;11.10;;;10.20;;
57551;SDS011;43379;48.160;14.036;2023-05-02T00:44:12;11.00;;;10.10;;
57551;SDS011;43379;48.160;14.036;2023-05-02T00:46:38;10.90;;;9.97;;
57551;SDS011;43379;48.160;14.036;2023-05-02T00:49:03;12.67;;;11.67;;
57551;SDS011;43379;48.160;14.036;2023-05-02T00:51:31;13.23;;;12.07;;
57551;SDS011;43379;48.160;14.036;2023-05-02T00:53:57;12.47;;;11.20;;
57551;SDS011;43379;48.160;14.036;2023-05-02T00:56:25;11.17;;;10.30;;
57551;SDS011;43379;48.160;14.036;2023-05-02T00:58:51;12.63;;;11.53;;
57551;SDS011;43379;48.160;14.036;2023-05-02T01:10:00;9.70;;;8.97;;
57551;SDS011;43379;48.160;14.036;2023-05-02T01:15:21;12.10;;;11.00;;
57551;SDS011;43379;48.160;14.036;2023-05-02T01:17:47;11.57;;;10.57;;
57551;SDS011;43379;48.160;14.036;2023-05-02T01:20:17;11.77;;;10.87;;
57551;SDS011;43379;48.160;14.036;2023-05-02T01:22:45;10.53;;;9.73;;
57551;SDS011;43379;48.160;14.036;2023-05-02T01:27:57;9.97;;;9.27;;
57551;SDS011;43379;48.160;14.036;2023-05-02T01:30:56;10.20;;;9.40;;
57551;SDS011;43379;48.160;14.036;2023-05-02T01:33:23;10.90;;;10.00;;
57551;SDS011;43379;48.160;14.036;2023-05-02T01:35:52;11.30;;;10.50;;
57551;SDS011;43379;48.160;14.036;2023-05-02T01:38:19;10.73;;;9.83;;
57551;SDS011;43379;48.160;14.036;2023-05-02T01:40:46;10.57;;;9.60;;
57551;SDS011;43379;48.160;14.036;2023-05-02T01:43:14;10.67;;;9.87;;
57551;SDS011;43379;48.160;14.036;2023-05-02T01:45:42;9.80;;;9.10;;
57551;SDS011;43379;48.160;14.036;2023-05-02T01:48:09;11.20;;;10.30;;
57551;SDS011;43379;48.160;14.036;2023-05-02T01:50:36;10.60;;;9.60;;
57551;SDS011;43379;48.160;14.036;2023-05-02T01:53:03;10.07;;;9.33;;
57551;SDS011;43379;48.160;14.036;2023-05-02T01:55:32;9.67;;;8.87;;
57551;SDS011;43379;48.160;14.036;2023-05-02T01:58:00;8.83;;;8.00;;
57551;SDS011;43379;48.160;14.036;2023-05-02T02:00:26;9.57;;;8.80;;
57551;SDS011;43379;48.160;14.036;2023-05-02T02:02:55;8.80;;;8.10;;
57551;SDS011;43379;48.160;14.036;2023-05-02T02:05:22;10.50;;;9.60;;
57551;SDS011;43379;48.160;14.036;2023-05-02T02:07:49;9.13;;;8.43;;
57551;SDS011;43379;48.160;14.036;2023-05-02T02:10:15;8.47;;;7.77;;
57551;SDS011;43379;48.160;14.036;2023-05-02T02:12:42;9.17;;;8.33;;
57551;SDS011;43379;48.160;14.036;2023-05-02T02:20:42;7.90;;;7.23;;
57551;SDS011;43379;48.160;14.036;2023-05-02T02:23:09;7.03;;;6.47;;
57551;SDS011;43379;48.160;14.036;2023-05-02T02:25:37;7.90;;;7.30;;
57551;SDS011;43379;48.160;14.036;2023-05-02T02:28:05;7.57;;;7.00;;
57551;SDS011;43379;48.160;14.036;2023-05-02T02:30:31;7.10;;;6.60;;
57551;SDS011;43379;48.160;14.036;2023-05-02T02:32:57;7.43;;;6.83;;
57551;SDS011;43379;48.160;14.036;2023-05-02T02:35:23;6.80;;;6.27;;
57551;SDS011;43379;48.160;14.036;2023-05-02T02:38:01;7.90;;;6.77;;
57551;SDS011;43379;48.160;14.036;2023-05-02T02:43:07;7.70;;;7.00;;
57551;SDS011;43379;48.160;14.036;2023-05-02T02:46:07;6.30;;;5.80;;
57551;SDS011;43379;48.160;14.036;2023-05-02T02:51:30;7.07;;;6.47;;
57551;SDS011;43379;48.160;14.036;2023-05-02T02:54:09;6.07;;;5.60;;
57551;SDS011;43379;48.160;14.036;2023-05-02T02:56:57;5.87;;;5.37;;
57551;SDS011;43379;48.160;14.036;2023-05-02T02:59:32;6.60;;;6.10;;
57551;SDS011;43379;48.160;14.036;2023-05-02T03:02:04;5.20;;;4.80;;
57551;SDS011;43379;48.160;14.036;2023-05-02T03:04:33;4.37;;;4.07;;
57551;SDS011;43379;48.160;14.036;2023-05-02T03:07:02;4.50;;;4.10;;
57551;SDS011;43379;48.160;14.036;2023-05-02T03:09:31;3.60;;;3.40;;
57551;SDS011;43379;48.160;14.036;2023-05-02T03:12:08;4.17;;;3.87;;
57551;SDS011;43379;48.160;14.036;2023-05-02T03:14:34;3.60;;;3.30;;
57551;SDS011;43379;48.160;14.036;2023-05-02T03:17:01;3.87;;;3.57;;
57551;SDS011;43379;48.160;14.036;2023-05-02T03:19:26;3.27;;;3.07;;
57551;SDS011;43379;48.160;14.036;2023-05-02T03:21:52;3.03;;;2.83;;
57551;SDS011;43379;48.160;14.036;2023-05-02T03:24:18;3.07;;;2.87;;
57551;SDS011;43379;48.160;14.036;2023-05-02T03:26:43;2.70;;;2.50;;
57551;SDS011;43379;48.160;14.036;2023-05-02T03:29:11;2.77;;;2.57;;
57551;SDS011;43379;48.160;14.036;2023-05-02T03:31:36;3.10;;;2.90;;
57551;SDS011;43379;48.160;14.036;2023-05-02T03:34:02;2.60;;;2.40;;
57551;SDS011;43379;48.160;14.036;2023-05-02T03:36:27;2.67;;;2.47;;
57551;SDS011;43379;48.160;14.036;2023-05-02T03:38:53;2.60;;;2.40;;
57551;SDS011;43379;48.160;14.036;2023-05-02T03:41:19;5.23;;;2.43;;
57551;SDS011;43379;48.160;14.036;2023-05-02T03:43:45;3.33;;;3.10;;
57551;SDS011;43379;48.160;14.036;2023-05-02T03:46:10;3.17;;;2.97;;
57551;SDS011;43379;48.160;14.036;2023-05-02T03:48:36;3.50;;;3.27;;
57551;SDS011;43379;48.160;14.036;2023-05-02T03:51:03;3.37;;;3.13;;
57551;SDS011;43379;48.160;14.036;2023-05-02T03:53:29;3.47;;;3.20;;
57551;SDS011;43379;48.160;14.036;2023-05-02T03:55:55;3.50;;;3.20;;
57551;SDS011;43379;48.160;14.036;2023-05-02T03:58:21;2.93;;;2.73;;
57551;SDS011;43379;48.160;14.036;2023-05-02T04:00:47;3.20;;;2.90;;
57551;SDS011;43379;48.160;14.036;2023-05-02T04:03:13;3.30;;;3.10;;
57551;SDS011;43379;48.160;14.036;2023-05-02T04:05:39;3.43;;;3.13;;
57551;SDS011;43379;48.160;14.036;2023-05-02T04:08:04;4.03;;;3.47;;
57551;SDS011;43379;48.160;14.036;2023-05-02T04:10:30;3.67;;;3.37;;
57551;SDS011;43379;48.160;14.036;2023-05-02T04:12:56;3.63;;;3.33;;
57551;SDS011;43379;48.160;14.036;2023-05-02T04:15:21;4.13;;;3.73;;
57551;SDS011;43379;48.160;14.036;2023-05-02T04:17:47;4.33;;;4.03;;
57551;SDS011;43379;48.160;14.036;2023-05-02T04:20:13;3.50;;;3.20;;
57551;SDS011;43379;48.160;14.036;2023-05-02T04:22:39;4.00;;;3.50;;
57551;SDS011;43379;48.160;14.036;2023-05-02T04:25:05;3.63;;;3.33;;
57551;SDS011;43379;48.160;14.036;2023-05-02T04:27:31;3.90;;;3.60;;
57551;SDS011;43379;48.160;14.036;2023-05-02T04:29:57;3.70;;;3.40;;
57551;SDS011;43379;48.160;14.036;2023-05-02T04:32:23;5.00;;;4.30;;
57551;SDS011;43379;48.160;14.036;2023-05-02T04:34:48;3.60;;;3.30;;
57551;SDS011;43379;48.160;14.036;2023-05-02T04:37:14;4.40;;;4.10;;
57551;SDS011;43379;48.160;14.036;2023-05-02T04:39:40;5.63;;;4.53;;
57551;SDS011;43379;48.160;14.036;2023-05-02T04:42:06;4.20;;;3.90;;
57551;SDS011;43379;48.160;14.036;2023-05-02T04:44:31;3.97;;;3.67;;
57551;SDS011;43379;48.160;14.036;2023-05-02T04:46:57;4.13;;;3.80;;
57551;SDS011;43379;48.160;14.036;2023-05-02T04:49:23;4.67;;;4.20;;
57551;SDS011;43379;48.160;14.036;2023-05-02T04:51:48;5.13;;;4.73;;
57551;SDS011;43379;48.160;14.036;2023-05-02T04:54:16;3.87;;;3.43;;
57551;SDS011;43379;48.160;14.036;2023-05-02T04:56:42;4.50;;;4.20;;
57551;SDS011;43379;48.160;14.036;2023-05-02T04:59:08;4.50;;;4.20;;
57551;SDS011;43379;48.160;14.036;2023-05-02T05:01:33;4.63;;;4.23;;
57551;SDS011;43379;48.160;14.036;2023-05-02T05:03:59;6.87;;;4.50;;
57551;SDS011;43379;48.160;14.036;2023-05-02T05:06:25;5.70;;;5.07;;
57551;SDS011;43379;48.160;14.036;2023-05-02T05:08:50;4.20;;;3.87;;
57551;SDS011;43379;48.160;14.036;2023-05-02T05:11:16;5.27;;;4.60;;
57551;SDS011;43379;48.160;14.036;2023-05-02T05:13:42;5.40;;;5.00;;
57551;SDS011;43379;48.160;14.036;2023-05-02T05:16:07;4.63;;;4.33;;
57551;SDS011;43379;48.160;14.036;2023-05-02T05:18:33;5.40;;;4.90;;
57551;SDS011;43379;48.160;14.036;2023-05-02T05:21:05;5.03;;;4.63;;
57551;SDS011;43379;48.160;14.036;2023-05-02T05:23:32;5.73;;;5.13;;
57551;SDS011;43379;48.160;14.036;2023-05-02T05:26:07;7.03;;;6.43;;
57551;SDS011;43379;48.160;14.036;2023-05-02T05:28:37;7.63;;;6.83;;
57551;SDS011;43379;48.160;14.036;2023-05-02T05:31:04;6.83;;;5.90;;
57551;SDS011;43379;48.160;14.036;2023-05-02T05:33:31;6.63;;;6.03;;
57551;SDS011;43379;48.160;14.036;2023-05-02T05:36:02;8.80;;;6.13;;
57551;SDS011;43379;48.160;14.036;2023-05-02T05:38:31;6.87;;;6.37;;
57551;SDS011;43379;48.160;14.036;2023-05-02T05:40:57;6.50;;;5.90;;
57551;SDS011;43379;48.160;14.036;2023-05-02T05:43:23;7.40;;;5.73;;
57551;SDS011;43379;48.160;14.036;2023-05-02T05:45:52;5.67;;;5.17;;
57551;SDS011;43379;48.160;14.036;2023-05-02T05:48:19;6.80;;;6.10;;
57551;SDS011;43379;48.160;14.036;2023-05-02T05:50:45;6.60;;;6.10;;
57551;SDS011;43379;48.160;14.036;2023-05-02T05:53:11;6.43;;;5.93;;
57551;SDS011;43379;48.160;14.036;2023-05-02T05:55:37;7.50;;;6.90;;
57551;SDS011;43379;48.160;14.036;2023-05-02T05:58:03;8.20;;;7.50;;
57551;SDS011;43379;48.160;14.036;2023-05-02T06:00:29;7.50;;;6.90;;
57551;SDS011;43379;48.160;14.036;2023-05-02T06:02:54;7.00;;;6.50;;
57551;SDS011;43379;48.160;14.036;2023-05-02T06:05:20;9.33;;;8.03;;
57551;SDS011;43379;48.160;14.036;2023-05-02T06:07:46;8.40;;;7.60;;
57551;SDS011;43379;48.160;14.036;2023-05-02T06:10:11;7.10;;;6.40;;
57551;SDS011;43379;48.160;14.036;2023-05-02T06:12:37;6.87;;;6.37;;
57551;SDS011;43379;48.160;14.036;2023-05-02T06:15:03;5.80;;;5.30;;
57551;SDS011;43379;48.160;14.036;2023-05-02T06:17:29;6.73;;;6.03;;
57551;SDS011;43379;48.160;14.036;2023-05-02T06:19:55;6.10;;;5.60;;
57551;SDS011;43379;48.160;14.036;2023-05-02T06:22:21;5.97;;;5.47;;
57551;SDS011;43379;48.160;14.036;2023-05-02T06:24:46;6.27;;;5.77;;
57551;SDS011;43379;48.160;14.036;2023-05-02T06:27:12;6.67;;;5.97;;
57551;SDS011;43379;48.160;14.036;2023-05-02T06:29:37;6.17;;;5.67;;
57551;SDS011;43379;48.160;14.036;2023-05-02T06:32:03;7.40;;;6.80;;
57551;SDS011;43379;48.160;14.036;2023-05-02T06:34:33;10.93;;;9.83;;
57551;SDS011;43379;48.160;14.036;2023-05-02T06:36:59;11.67;;;10.70;;
57551;SDS011;43379;48.160;14.036;2023-05-02T06:39:24;11.37;;;10.27;;
57551;SDS011;43379;48.160;14.036;2023-05-02T06:41:50;12.00;;;10.13;;
57551;SDS011;43379;48.160;14.036;2023-05-02T06:44:20;12.13;;;10.93;;
57551;SDS011;43379;48.160;14.036;2023-05-02T06:46:45;11.50;;;10.60;;
57551;SDS011;43379;48.160;14.036;2023-05-02T06:49:11;12.33;;;11.13;;
57551;SDS011;43379;48.160;14.036;2023-05-02T06:51:37;11.37;;;10.47;;
57551;SDS011;43379;48.160;14.036;2023-05-02T06:54:02;10.97;;;10.07;;
57551;SDS011;43379;48.160;14.036;2023-05-02T06:56:28;12.00;;;11.10;;
57551;SDS011;43379;48.160;14.036;2023-05-02T06:58:54;12.50;;;11.40;;
57551;SDS011;43379;48.160;14.036;2023-05-02T07:01:19;12.27;;;11.23;;
57551;SDS011;43379;48.160;14.036;2023-05-02T07:03:45;12.53;;;11.53;;
57551;SDS011;43379;48.160;14.036;2023-05-02T07:06:11;13.20;;;12.00;;
57551;SDS011;43379;48.160;14.036;2023-05-02T07:08:37;12.20;;;11.20;;
57551;SDS011;43379;48.160;14.036;2023-05-02T07:11:02;11.73;;;10.83;;
57551;SDS011;43379;48.160;14.036;2023-05-02T07:13:28;12.63;;;11.37;;
57551;SDS011;43379;48.160;14.036;2023-05-02T07:15:54;12.77;;;11.60;;
57551;SDS011;43379;48.160;14.036;2023-05-02T07:18:20;12.77;;;11.77;;
57551;SDS011;43379;48.160;14.036;2023-05-02T07:20:46;12.27;;;11.17;;
57551;SDS011;43379;48.160;14.036;2023-05-02T07:23:12;12.10;;;10.90;;
57551;SDS011;43379;48.160;14.036;2023-05-02T07:25:37;11.77;;;10.77;;
57551;SDS011;43379;48.160;14.036;2023-05-02T07:28:04;11.57;;;10.57;;
57551;SDS011;43379;48.160;14.036;2023-05-02T07:30:30;12.00;;;11.00;;
57551;SDS011;43379;48.160;14.036;2023-05-02T07:32:55;12.57;;;11.57;;
57551;SDS011;43379;48.160;14.036;2023-05-02T07:35:21;11.80;;;10.67;;
57551;SDS011;43379;48.160;14.036;2023-05-02T07:37:47;12.73;;;11.53;;
57551;SDS011;43379;48.160;14.036;2023-05-02T07:40:12;12.20;;;11.20;;
57551;SDS011;43379;48.160;14.036;2023-05-02T07:42:38;13.88;;;12.68;;
57551;SDS011;43379;48.160;14.036;2023-05-02T07:45:06;13.50;;;12.30;;
57551;SDS011;43379;48.160;14.036;2023-05-02T07:47:32;12.20;;;11.20;;
57551;SDS011;43379;48.160;14.036;2023-05-02T07:49:58;12.47;;;11.33;;
57551;SDS011;43379;48.160;14.036;2023-05-02T07:52:25;12.53;;;11.50;;
57551;SDS011;43379;48.160;14.036;2023-05-02T07:54:50;12.17;;;11.13;;
57551;SDS011;43379;48.160;14.036;2023-05-02T07:57:17;13.87;;;12.60;;
57551;SDS011;43379;48.160;14.036;2023-05-02T07:59:43;13.40;;;12.20;;
57551;SDS011;43379;48.160;14.036;2023-05-02T08:02:08;14.10;;;12.90;;
57551;SDS011;43379;48.160;14.036;2023-05-02T08:04:37;11.70;;;10.70;;
57551;SDS011;43379;48.160;14.036;2023-05-02T08:07:02;12.90;;;11.80;;
57551;SDS011;43379;48.160;14.036;2023-05-02T08:09:28;13.43;;;12.27;;
57551;SDS011;43379;48.160;14.036;2023-05-02T08:11:53;12.17;;;11.13;;
57551;SDS011;43379;48.160;14.036;2023-05-02T08:14:19;11.37;;;10.57;;
57551;SDS011;43379;48.160;14.036;2023-05-02T08:16:45;11.90;;;10.90;;
57551;SDS011;43379;48.160;14.036;2023-05-02T08:19:11;12.87;;;11.73;;
57551;SDS011;43379;48.160;14.036;2023-05-02T08:21:36;13.20;;;12.00;;
57551;SDS011;43379;48.160;14.036;2023-05-02T08:24:02;11.70;;;10.70;;
57551;SDS011;43379;48.160;14.036;2023-05-02T08:26:28;13.53;;;12.20;;
57551;SDS011;43379;48.160;14.036;2023-05-02T08:28:53;12.77;;;11.70;;
57551;SDS011;43379;48.160;14.036;2023-05-02T08:31:19;11.47;;;10.57;;
57551;SDS011;43379;48.160;14.036;2023-05-02T08:33:45;12.87;;;11.73;;
57551;SDS011;43379;48.160;14.036;2023-05-02T08:36:12;12.23;;;11.13;;
57551;SDS011;43379;48.160;14.036;2023-05-02T08:38:39;12.83;;;11.70;;
57551;SDS011;43379;48.160;14.036;2023-05-02T08:41:13;12.37;;;11.37;;
57551;SDS011;43379;48.160;14.036;2023-05-02T08:43:41;11.53;;;10.63;;
57551;SDS011;43379;48.160;14.036;2023-05-02T08:46:08;12.30;;;11.27;;
57551;SDS011;43379;48.160;14.036;2023-05-02T08:48:35;11.50;;;10.63;;
57551;SDS011;43379;48.160;14.036;2023-05-02T08:51:02;11.50;;;10.50;;
57551;SDS011;43379;48.160;14.036;2023-05-02T08:53:33;11.27;;;10.27;;
57551;SDS011;43379;48.160;14.036;2023-05-02T08:55:59;12.40;;;11.30;;
57551;SDS011;43379;48.160;14.036;2023-05-02T08:58:25;13.03;;;12.00;;
57551;SDS011;43379;48.160;14.036;2023-05-02T09:00:51;11.43;;;10.47;;
57551;SDS011;43379;48.160;14.036;2023-05-02T09:03:32;11.97;;;10.87;;
57551;SDS011;43379;48.160;14.036;2023-05-02T09:06:08;11.27;;;10.37;;
57551;SDS011;43379;48.160;14.036;2023-05-02T09:08:45;11.87;;;11.00;;
57551;SDS011;43379;48.160;14.036;2023-05-02T09:11:16;12.47;;;11.57;;
57551;SDS011;43379;48.160;14.036;2023-05-02T09:13:49;11.50;;;10.50;;
57551;SDS011;43379;48.160;14.036;2023-05-02T09:16:20;11.30;;;10.13;;
57551;SDS011;43379;48.160;14.036;2023-05-02T09:18:51;11.67;;;10.73;;
57551;SDS011;43379;48.160;14.036;2023-05-02T09:21:22;11.60;;;10.50;;
57551;SDS011;43379;48.160;14.036;2023-05-02T09:23:56;11.83;;;10.73;;
57551;SDS011;43379;48.160;14.036;2023-05-02T09:26:28;10.93;;;10.10;;
57551;SDS011;43379;48.160;14.036;2023-05-02T09:28:59;11.33;;;10.43;;
57551;SDS011;43379;48.160;14.036;2023-05-02T09:31:26;11.60;;;10.57;;
57551;SDS011;43379;48.160;14.036;2023-05-02T09:36:41;11.73;;;10.77;;
57551;SDS011;43379;48.160;14.036;2023-05-02T09:39:15;11.37;;;10.47;;
57551;SDS011;43379;48.160;14.036;2023-05-02T09:41:42;11.83;;;10.83;;
57551;SDS011;43379;48.160;14.036;2023-05-02T09:44:13;10.97;;;10.07;;
57551;SDS011;43379;48.160;14.036;2023-05-02T09:46:42;11.13;;;10.23;;
57551;SDS011;43379;48.160;14.036;2023-05-02T09:49:10;11.10;;;10.20;;
57551;SDS011;43379;48.160;14.036;2023-05-02T09:51:35;10.57;;;9.77;;
57551;SDS011;43379;48.160;14.036;2023-05-02T09:54:02;11.00;;;10.10;;
57551;SDS011;43379;48.160;14.036;2023-05-02T09:56:28;10.50;;;9.53;;
57551;SDS011;43379;48.160;14.036;2023-05-02T09:59:10;10.10;;;9.40;;
57551;SDS011;43379;48.160;14.036;2023-05-02T10:01:40;10.57;;;9.77;;
57551;SDS011;43379;48.160;14.036;2023-05-02T10:04:15;9.70;;;8.90;;
57551;SDS011;43379;48.160;14.036;2023-05-02T10:06:43;10.60;;;9.67;;
57551;SDS011;43379;48.160;14.036;2023-05-02T10:09:09;10.53;;;9.63;;
57551;SDS011;43379;48.160;14.036;2023-05-02T10:11:43;10.20;;;9.40;;
57551;SDS011;43379;48.160;14.036;2023-05-02T10:14:09;10.80;;;9.80;;
57551;SDS011;43379;48.160;14.036;2023-05-02T10:16:37;9.83;;;9.10;;
57551;SDS011;43379;48.160;14.036;2023-05-02T10:19:09;9.83;;;9.03;;
57551;SDS011;43379;48.160;14.036;2023-05-02T10:21:36;9.37;;;8.67;;
57551;SDS011;43379;48.160;14.036;2023-05-02T10:24:07;9.63;;;8.80;;
57551;SDS011;43379;48.160;14.036;2023-05-02T10:26:33;9.43;;;8.60;;
57551;SDS011;43379;48.160;14.036;2023-05-02T10:29:00;9.70;;;8.80;;
57551;SDS011;43379;48.160;14.036;2023-05-02T10:31:26;9.73;;;8.80;;
57551;SDS011;43379;48.160;14.036;2023-05-02T10:33:56;9.93;;;9.23;;
57551;SDS011;43379;48.160;14.036;2023-05-02T10:36:25;9.73;;;8.93;;
57551;SDS011;43379;48.160;14.036;2023-05-02T10:38:52;9.17;;;8.43;;
57551;SDS011;43379;48.160;14.036;2023-05-02T10:41:24;9.30;;;8.43;;
57551;SDS011;43379;48.160;14.036;2023-05-02T10:43:51;9.70;;;9.00;;
57551;SDS011;43379;48.160;14.036;2023-05-02T10:46:39;9.67;;;8.93;;
57551;SDS011;43379;48.160;14.036;2023-05-02T10:49:10;8.87;;;8.07;;
57551;SDS011;43379;48.160;14.036;2023-05-02T10:51:37;9.90;;;9.10;;
57551;SDS011;43379;48.160;14.036;2023-05-02T10:59:39;9.00;;;8.37;;
57551;SDS011;43379;48.160;14.036;2023-05-02T11:04:57;9.10;;;8.40;;
57551;SDS011;43379;48.160;14.036;2023-05-02T11:07:24;9.40;;;8.63;;
57551;SDS011;43379;48.160;14.036;2023-05-02T11:09:50;9.50;;;8.70;;
57551;SDS011;43379;48.160;14.036;2023-05-02T11:17:57;8.10;;;7.50;;
57551;SDS011;43379;48.160;14.036;2023-05-02T11:20:23;8.90;;;8.10;;
57551;SDS011;43379;48.160;14.036;2023-05-02T11:22:49;9.57;;;8.77;;
57551;SDS011;43379;48.160;14.036;2023-05-02T11:25:31;8.63;;;7.93;;
57551;SDS011;43379;48.160;14.036;2023-05-02T11:27:58;9.73;;;8.73;;
57551;SDS011;43379;48.160;14.036;2023-05-02T11:30:35;8.70;;;8.10;;
57551;SDS011;43379;48.160;14.036;2023-05-02T11:35:35;8.97;;;8.17;;
57551;SDS011;43379;48.160;14.036;2023-05-02T11:38:08;8.73;;;8.03;;
57551;SDS011;43379;48.160;14.036;2023-05-02T11:40:35;8.83;;;8.23;;
57551;SDS011;43379;48.160;14.036;2023-05-02T11:43:10;10.10;;;9.20;;
57551;SDS011;43379;48.160;14.036;2023-05-02T11:45:40;8.80;;;8.10;;
57551;SDS011;43379;48.160;14.036;2023-05-02T11:48:07;9.07;;;8.30;;
57551;SDS011;43379;48.160;14.036;2023-05-02T11:50:44;12.27;;;9.10;;
57551;SDS011;43379;48.160;14.036;2023-05-02T11:53:12;9.60;;;8.80;;
57551;SDS011;43379;48.160;14.036;2023-05-02T11:55:46;8.80;;;8.10;;
57551;SDS011;43379;48.160;14.036;2023-05-02T11:58:17;9.07;;;8.37;;
57551;SDS011;43379;48.160;14.036;2023-05-02T12:00:45;9.60;;;8.80;;
57551;SDS011;43379;48.160;14.036;2023-05-02T12:03:45;10.00;;;9.07;;
57551;SDS011;43379;48.160;14.036;2023-05-02T12:06:13;9.20;;;8.47;;
57551;SDS011;43379;48.160;14.036;2023-05-02T12:08:41;10.03;;;9.23;;
57551;SDS011;43379;48.160;14.036;2023-05-02T12:11:08;8.50;;;7.80;;
57551;SDS011;43379;48.160;14.036;2023-05-02T12:13:43;9.93;;;9.07;;
57551;SDS011;43379;48.160;14.036;2023-05-02T12:16:10;9.10;;;8.40;;
57551;SDS011;43379;48.160;14.036;2023-05-02T12:18:36;10.30;;;9.30;;
57551;SDS011;43379;48.160;14.036;2023-05-02T12:21:02;10.67;;;9.77;;
57551;SDS011;43379;48.160;14.036;2023-05-02T12:23:29;10.53;;;9.47;;
57551;SDS011;43379;48.160;14.036;2023-05-02T12:25:57;11.37;;;10.47;;
57551;SDS011;43379;48.160;14.036;2023-05-02T12:28:23;10.40;;;9.40;;
57551;SDS011;43379;48.160;14.036;2023-05-02T12:30:49;9.80;;;9.03;;
57551;SDS011;43379;48.160;14.036;2023-05-02T12:33:16;11.53;;;10.53;;
57551;SDS011;43379;48.160;14.036;2023-05-02T12:35:42;11.03;;;10.13;;
57551;SDS011;43379;48.160;14.036;2023-05-02T12:38:14;12.03;;;10.47;;
57551;SDS011;43379;48.160;14.036;2023-05-02T12:40:51;10.00;;;9.20;;
57551;SDS011;43379;48.160;14.036;2023-05-02T12:43:18;11.13;;;10.20;;
57551;SDS011;43379;48.160;14.036;2023-05-02T12:45:44;12.00;;;11.00;;
57551;SDS011;43379;48.160;14.036;2023-05-02T12:48:18;10.77;;;9.97;;
57551;SDS011;43379;48.160;14.036;2023-05-02T12:50:46;11.30;;;10.10;;
57551;SDS011;43379;48.160;14.036;2023-05-02T12:53:12;11.77;;;10.80;;
57551;SDS011;43379;48.160;14.036;2023-05-02T12:55:38;10.77;;;9.93;;
57551;SDS011;43379;48.160;14.036;2023-05-02T12:58:05;10.63;;;9.73;;
57551;SDS011;43379;48.160;14.036;2023-05-02T13:00:36;11.97;;;10.97;;
57551;SDS011;43379;48.160;14.036;2023-05-02T13:03:03;10.33;;;9.50;;
57551;SDS011;43379;48.160;14.036;2023-05-02T13:05:29;11.00;;;10.20;;
57551;SDS011;43379;48.160;14.036;2023-05-02T13:07:55;12.77;;;11.47;;
57551;SDS011;43379;48.160;14.036;2023-05-02T13:10:22;11.00;;;10.10;;
57551;SDS011;43379;48.160;14.036;2023-05-02T13:12:49;11.60;;;10.60;;
57551;SDS011;43379;48.160;14.036;2023-05-02T13:15:16;11.63;;;10.73;;
57551;SDS011;43379;48.160;14.036;2023-05-02T13:17:42;10.37;;;9.50;;
57551;SDS011;43379;48.160;14.036;2023-05-02T13:20:08;10.17;;;9.37;;
57551;SDS011;43379;48.160;14.036;2023-05-02T13:22:34;10.73;;;9.83;;
57551;SDS011;43379;48.160;14.036;2023-05-02T13:25:01;10.77;;;9.93;;
57551;SDS011;43379;48.160;14.036;2023-05-02T13:27:30;10.63;;;9.83;;
57551;SDS011;43379;48.160;14.036;2023-05-02T13:29:58;11.17;;;10.17;;
57551;SDS011;43379;48.160;14.036;2023-05-02T13:32:24;11.13;;;10.13;;
57551;SDS011;43379;48.160;14.036;2023-05-02T13:34:49;11.80;;;10.90;;
57551;SDS011;43379;48.160;14.036;2023-05-02T13:37:15;11.87;;;10.77;;
57551;SDS011;43379;48.160;14.036;2023-05-02T13:39:41;10.93;;;10.03;;
57551;SDS011;43379;48.160;14.036;2023-05-02T13:42:06;13.00;;;11.90;;
57551;SDS011;43379;48.160;14.036;2023-05-02T13:44:32;11.73;;;10.67;;
57551;SDS011;43379;48.160;14.036;2023-05-02T13:46:58;10.70;;;9.80;;
57551;SDS011;43379;48.160;14.036;2023-05-02T13:49:23;10.77;;;9.97;;
57551;SDS011;43379;48.160;14.036;2023-05-02T13:51:49;11.40;;;10.60;;
57551;SDS011;43379;48.160;14.036;2023-05-02T13:54:15;10.80;;;9.83;;
57551;SDS011;43379;48.160;14.036;2023-05-02T13:56:41;11.90;;;11.00;;
57551;SDS011;43379;48.160;14.036;2023-05-02T13:59:07;14.97;;;13.67;;
57551;SDS011;43379;48.160;14.036;2023-05-02T14:01:33;12.70;;;11.70;;
57551;SDS011;43379;48.160;14.036;2023-05-02T14:03:59;12.30;;;11.30;;
57551;SDS011;43379;48.160;14.036;2023-05-02T14:06:30;12.00;;;10.90;;
57551;SDS011;43379;48.160;14.036;2023-05-02T14:08:56;10.93;;;10.10;;
57551;SDS011;43379;48.160;14.036;2023-05-02T14:11:22;10.57;;;9.77;;
57551;SDS011;43379;48.160;14.036;2023-05-02T14:13:47;10.27;;;9.47;;
57551;SDS011;43379;48.160;14.036;2023-05-02T14:16:13;11.40;;;10.40;;
57551;SDS011;43379;48.160;14.036;2023-05-02T14:18:39;10.80;;;9.80;;
57551;SDS011;43379;48.160;14.036;2023-05-02T14:21:04;11.47;;;10.30;;
57551;SDS011;43379;48.160;14.036;2023-05-02T14:23:30;10.47;;;9.67;;
57551;SDS011;43379;48.160;14.036;2023-05-02T14:25:56;11.70;;;10.70;;
57551;SDS011;43379;48.160;14.036;2023-05-02T14:28:22;12.20;;;11.00;;
57551;SDS011;43379;48.160;14.036;2023-05-02T14:30:48;11.80;;;10.90;;
57551;SDS011;43379;48.160;14.036;2023-05-02T14:33:14;12.00;;;11.00;;
57551;SDS011;43379;48.160;14.036;2023-05-02T14:35:39;12.43;;;11.23;;
57551;SDS011;43379;48.160;14.036;2023-05-02T14:38:05;11.97;;;11.07;;
57551;SDS011;43379;48.160;14.036;2023-05-02T14:40:31;11.77;;;10.67;;
57551;SDS011;43379;48.160;14.036;2023-05-02T14:42:57;12.37;;;11.27;;
57551;SDS011;43379;48.160;14.036;2023-05-02T14:45:23;11.97;;;10.87;;
57551;SDS011;43379;48.160;14.036;2023-05-02T14:47:48;11.63;;;10.57;;
57551;SDS011;43379;48.160;14.036;2023-05-02T14:50:15;12.03;;;11.00;;
57551;SDS011;43379;48.160;14.036;2023-05-02T14:52:41;11.13;;;10.33;;
57551;SDS011;43379;48.160;14.036;2023-05-02T14:55:07;13.93;;;12.83;;
57551;SDS011;43379;48.160;14.036;2023-05-02T14:57:33;12.57;;;11.50;;
57551;SDS011;43379;48.160;14.036;2023-05-02T14:59:59;11.47;;;10.47;;
57551;SDS011;43379;48.160;14.036;2023-05-02T15:02:24;12.10;;;11.10;;
57551;SDS011;43379;48.160;14.036;2023-05-02T15:04:50;11.23;;;10.23;;
57551;SDS011;43379;48.160;14.036;2023-05-02T15:07:16;10.67;;;9.57;;